createdAt,value
2019-01-20T00:01:29.391Z,9.30
2019-01-20T00:03:33.579Z,8.70
2019-01-20T00:05:42.344Z,8.67
2019-01-20T00:07:48.513Z,8.10
2019-01-20T00:09:54.371Z,8.23
2019-01-20T00:12:10.312Z,8.03
2019-01-20T00:14:17.992Z,9.47
2019-01-20T00:16:21.888Z,7.07
2019-01-20T00:18:25.947Z,8.17
2019-01-20T00:20:30.028Z,8.90
2019-01-20T00:22:33.846Z,7.53
2019-01-20T00:24:37.818Z,8.20
2019-01-20T00:26:41.711Z,8.23
2019-01-20T00:28:46.827Z,7.70
2019-01-20T00:30:52.260Z,8.13
2019-01-20T00:32:56.161Z,7.60
2019-01-20T00:35:00.263Z,7.43
2019-01-20T00:37:04.338Z,8.20
2019-01-20T00:39:09.313Z,7.50
2019-01-20T00:41:13.346Z,8.13
2019-01-20T00:43:17.403Z,7.90
2019-01-20T00:45:21.419Z,8.47
2019-01-20T00:47:25.371Z,8.30
2019-01-20T00:49:29.319Z,8.50
2019-01-20T00:51:33.650Z,8.73
2019-01-20T00:53:37.635Z,8.57
2019-01-20T00:55:41.551Z,8.30
2019-01-20T00:57:45.532Z,7.20
2019-01-20T00:59:49.442Z,8.10
2019-01-20T01:02:01.503Z,7.83
2019-01-20T01:04:05.811Z,9.13
2019-01-20T01:06:09.711Z,8.57
2019-01-20T01:08:13.663Z,9.20
2019-01-20T01:10:17.595Z,8.90
2019-01-20T01:12:22.327Z,8.73
2019-01-20T01:14:26.214Z,9.20
2019-01-20T01:16:30.130Z,9.10
2019-01-20T01:18:34.058Z,9.60
2019-01-20T01:20:38.246Z,9.50
2019-01-20T01:22:42.197Z,9.50
2019-01-20T01:24:46.126Z,9.70
2019-01-20T01:26:49.986Z,9.67
2019-01-20T01:28:53.861Z,11.23
2019-01-20T01:30:57.741Z,10.70
2019-01-20T01:33:01.889Z,10.70
2019-01-20T01:35:06.286Z,11.30
2019-01-20T01:37:10.132Z,12.57
2019-01-20T01:39:14.594Z,11.07
2019-01-20T01:41:18.530Z,11.00
2019-01-20T01:43:22.436Z,11.60
2019-01-20T01:45:26.325Z,10.00
2019-01-20T01:47:30.134Z,12.60
2019-01-20T01:49:33.986Z,12.20
2019-01-20T01:51:37.907Z,12.13
2019-01-20T01:53:41.808Z,13.20
2019-01-20T01:55:45.735Z,12.20
2019-01-20T01:57:49.919Z,11.77
2019-01-20T01:59:53.803Z,12.67
2019-01-20T02:01:57.811Z,13.00
2019-01-20T02:04:01.775Z,13.03
2019-01-20T02:06:07.856Z,13.53
2019-01-20T02:08:13.076Z,14.17
2019-01-20T02:10:18.919Z,15.77
2019-01-20T02:12:22.922Z,15.33
2019-01-20T02:14:26.742Z,14.00
2019-01-20T02:16:30.774Z,13.17
2019-01-20T02:18:34.647Z,13.87
2019-01-20T02:20:38.890Z,12.80
2019-01-20T02:22:42.940Z,14.37
2019-01-20T02:24:46.747Z,15.13
2019-01-20T02:26:50.715Z,14.50
2019-01-20T02:28:54.778Z,15.70
2019-01-20T02:30:58.735Z,16.13
2019-01-20T02:33:02.817Z,15.50
2019-01-20T02:35:06.991Z,16.60
2019-01-20T02:37:10.888Z,16.20
2019-01-20T02:39:14.762Z,16.93
2019-01-20T02:41:19.151Z,16.70
2019-01-20T02:43:23.019Z,15.60
2019-01-20T02:45:27.178Z,14.10
2019-01-20T02:47:31.091Z,15.00
2019-01-20T02:49:47.042Z,14.60
2019-01-20T02:51:50.940Z,16.00
2019-01-20T02:53:54.774Z,15.60
2019-01-20T02:55:58.683Z,15.13
2019-01-20T02:58:02.582Z,13.50
2019-01-20T03:00:10.232Z,15.43
2019-01-20T03:02:14.134Z,15.90
2019-01-20T03:04:18.026Z,14.30
2019-01-20T03:06:21.988Z,13.27
2019-01-20T03:08:25.890Z,14.87
2019-01-20T03:10:29.833Z,15.70
2019-01-20T03:12:33.830Z,15.50
2019-01-20T03:14:37.782Z,14.40
2019-01-20T03:16:41.752Z,14.60
2019-01-20T03:18:45.911Z,16.30
2019-01-20T03:20:49.956Z,15.33
2019-01-20T03:22:53.952Z,16.40
2019-01-20T03:24:57.822Z,14.43
2019-01-20T03:27:01.742Z,13.50
2019-01-20T03:29:05.733Z,14.93
2019-01-20T03:31:09.630Z,15.00
2019-01-20T03:33:13.432Z,15.00
2019-01-20T03:35:19.352Z,15.77
2019-01-20T03:37:24.624Z,17.67
2019-01-20T03:39:28.754Z,17.43
2019-01-20T03:41:32.546Z,17.57
2019-01-20T03:43:36.930Z,18.50
2019-01-20T03:45:40.821Z,17.73
2019-01-20T03:47:44.941Z,16.07
2019-01-20T03:49:49.214Z,17.40
2019-01-20T03:51:53.115Z,16.27
2019-01-20T03:53:56.995Z,18.13
2019-01-20T03:56:00.878Z,16.50
2019-01-20T03:58:04.957Z,17.00
2019-01-20T04:00:14.730Z,16.50
2019-01-20T04:02:20.340Z,15.53
2019-01-20T04:04:24.295Z,16.37
2019-01-20T04:06:28.226Z,15.70
2019-01-20T04:08:32.164Z,16.83
2019-01-20T04:10:36.124Z,16.23
2019-01-20T04:12:40.076Z,18.43
2019-01-20T04:14:43.976Z,18.73
2019-01-20T04:16:47.934Z,18.00
2019-01-20T04:18:52.108Z,19.00
2019-01-20T04:20:55.993Z,18.93
2019-01-20T04:22:59.887Z,19.00
2019-01-20T04:25:04.323Z,16.20
2019-01-20T04:27:08.261Z,18.00
2019-01-20T04:29:12.154Z,16.53
2019-01-20T04:31:15.967Z,19.70
2019-01-20T04:33:19.795Z,17.00
2019-01-20T04:35:23.667Z,16.80
2019-01-20T04:37:27.751Z,20.13
2019-01-20T04:39:31.580Z,20.33
2019-01-20T04:41:35.798Z,17.20
2019-01-20T04:43:39.738Z,18.70
2019-01-20T04:45:43.545Z,19.97
2019-01-20T04:47:47.508Z,19.00
2019-01-20T04:49:51.404Z,19.43
2019-01-20T04:51:55.362Z,18.60
2019-01-20T04:53:59.414Z,19.60
2019-01-20T04:56:03.379Z,18.77
2019-01-20T04:58:07.535Z,18.10
2019-01-20T05:00:16.782Z,18.77
2019-01-20T05:02:20.726Z,18.03
2019-01-20T05:04:24.597Z,18.67
2019-01-20T05:06:28.483Z,19.90
2019-01-20T05:08:32.394Z,18.97
2019-01-20T05:10:36.358Z,18.23
2019-01-20T05:12:40.371Z,20.70
2019-01-20T05:14:44.183Z,19.03
2019-01-20T05:16:53.080Z,20.70
2019-01-20T05:18:56.885Z,18.30
2019-01-20T05:21:00.746Z,17.30
2019-01-20T05:23:04.768Z,18.27
2019-01-20T05:25:08.856Z,16.97
2019-01-20T05:27:13.010Z,16.73
2019-01-20T05:29:16.824Z,19.57
2019-01-20T05:31:20.776Z,18.53
2019-01-20T05:33:24.755Z,20.20
2019-01-20T05:35:28.999Z,19.50
2019-01-20T05:37:32.826Z,19.40
2019-01-20T05:39:37.743Z,19.80
2019-01-20T05:41:41.631Z,18.50
2019-01-20T05:43:45.567Z,19.00
2019-01-20T05:45:49.759Z,22.43
2019-01-20T05:47:54.060Z,23.03
2019-01-20T05:49:58.069Z,21.97
2019-01-20T05:52:02.357Z,24.17
2019-01-20T05:54:06.267Z,23.17
2019-01-20T05:56:10.206Z,22.90
2019-01-20T05:58:14.013Z,22.00
2019-01-20T06:00:20.498Z,22.47
2019-01-20T06:02:24.471Z,22.30
2019-01-20T06:04:28.347Z,24.00
2019-01-20T06:06:32.319Z,24.13
2019-01-20T06:08:36.203Z,22.50
2019-01-20T06:10:40.030Z,23.17
2019-01-20T06:12:44.039Z,24.07
2019-01-20T06:14:47.843Z,23.87
2019-01-20T06:16:51.680Z,20.40
2019-01-20T06:18:55.652Z,20.00
2019-01-20T06:20:59.927Z,21.87
2019-01-20T06:23:03.920Z,21.00
2019-01-20T06:25:07.916Z,23.00
2019-01-20T06:27:11.790Z,19.70
2019-01-20T06:29:15.707Z,21.10
2019-01-20T06:31:19.598Z,21.97
2019-01-20T06:33:23.549Z,21.93
2019-01-20T06:35:27.480Z,22.63
2019-01-20T06:37:31.361Z,20.80
2019-01-20T06:39:35.721Z,18.93
2019-01-20T06:41:39.535Z,18.23
2019-01-20T06:43:43.359Z,19.67
2019-01-20T06:45:47.312Z,20.10
2019-01-20T06:47:51.246Z,21.23
2019-01-20T06:49:55.122Z,18.30
2019-01-20T06:51:58.955Z,17.90
2019-01-20T06:54:02.867Z,17.90
2019-01-20T06:56:12.284Z,17.60
2019-01-20T06:58:34.495Z,20.13
2019-01-20T07:00:51.832Z,18.60
2019-01-20T07:03:18.906Z,19.33
2019-01-20T07:05:30.200Z,20.67
2019-01-20T07:07:34.937Z,19.93
2019-01-20T07:12:24.668Z,16.50
2019-01-20T07:14:33.293Z,16.50
2019-01-20T07:16:37.579Z,15.63
2019-01-20T07:18:46.784Z,16.43
2019-01-20T07:20:54.188Z,15.80
2019-01-20T07:23:06.295Z,15.60
2019-01-20T07:25:13.858Z,17.00
2019-01-20T07:27:20.697Z,16.77
2019-01-20T07:29:34.288Z,17.83
2019-01-20T07:32:13.492Z,15.13
2019-01-20T07:34:21.819Z,15.60
2019-01-20T07:36:27.259Z,17.57
2019-01-20T07:38:31.370Z,16.60
2019-01-20T07:40:38.223Z,18.27
2019-01-20T07:42:56.869Z,18.73
2019-01-20T07:45:05.579Z,18.50
2019-01-20T07:47:18.070Z,18.93
2019-01-20T07:49:27.004Z,17.77
2019-01-20T07:51:35.264Z,19.03
2019-01-20T07:53:43.245Z,17.67
2019-01-20T07:56:11.098Z,18.17
2019-01-20T07:58:35.701Z,17.90
2019-01-20T08:00:55.595Z,16.73
2019-01-20T08:03:05.174Z,16.03
2019-01-20T08:05:22.688Z,16.57
2019-01-20T08:07:40.926Z,16.27
2019-01-20T08:10:00.656Z,19.53
2019-01-20T08:12:08.676Z,18.80
2019-01-20T08:14:48.434Z,19.00
2019-01-20T08:16:42.737Z,18.53
2019-01-20T08:18:58.229Z,17.97
2019-01-20T08:21:18.072Z,16.80
2019-01-20T08:23:13.741Z,16.80
2019-01-20T08:25:23.717Z,18.47
2019-01-20T08:27:43.553Z,18.07
2019-01-20T08:29:51.655Z,17.17
2019-01-20T08:32:03.940Z,16.20
2019-01-20T08:37:30.048Z,19.40
2019-01-20T08:39:48.557Z,16.47
2019-01-20T08:42:05.554Z,16.50
2019-01-20T08:44:19.935Z,15.37
2019-01-20T08:47:13.546Z,16.77
2019-01-20T08:49:21.313Z,16.63
2019-01-20T08:51:39.164Z,16.70
2019-01-20T08:54:08.344Z,19.93
2019-01-20T08:56:18.259Z,16.30
2019-01-20T08:59:03.577Z,13.90
2019-01-20T09:01:15.909Z,11.40
2019-01-20T09:03:39.217Z,10.53
2019-01-20T09:06:13.528Z,10.27
2019-01-20T09:08:36.585Z,9.47
2019-01-20T09:10:59.040Z,10.40
2019-01-20T09:13:29.647Z,10.97
2019-01-20T09:15:33.759Z,10.13
2019-01-20T09:18:00.237Z,10.60
2019-01-20T09:20:05.326Z,11.37
2019-01-20T09:23:11.262Z,10.83
2019-01-20T09:26:02.359Z,11.73
2019-01-20T09:28:27.158Z,10.97
2019-01-20T09:30:55.051Z,11.10
2019-01-20T09:36:00.167Z,11.10
2019-01-20T09:38:14.429Z,11.50
2019-01-20T09:40:47.133Z,9.80
2019-01-20T09:43:29.465Z,10.93
2019-01-20T09:45:49.617Z,10.00
2019-01-20T09:48:21.326Z,10.23
2019-01-20T09:50:46.645Z,10.60
2019-01-20T09:53:16.108Z,11.23
2019-01-20T09:55:31.932Z,10.00
2019-01-20T09:58:19.366Z,9.73
2019-01-20T10:00:32.468Z,10.03
2019-01-20T10:06:07.008Z,11.10
2019-01-20T10:11:12.022Z,9.03
2019-01-20T10:16:11.924Z,10.50
2019-01-20T10:18:48.159Z,11.50
2019-01-20T10:21:30.902Z,10.70
2019-01-20T10:25:15.045Z,9.73
2019-01-20T10:27:31.193Z,10.50
2019-01-20T10:30:54.974Z,11.20
2019-01-20T10:33:22.714Z,10.77
2019-01-20T10:35:31.423Z,10.73
2019-01-20T10:37:36.944Z,10.53
2019-01-20T10:39:41.430Z,10.57
2019-01-20T10:42:22.968Z,10.10
2019-01-20T10:44:20.292Z,10.23
2019-01-20T10:46:32.103Z,9.70
2019-01-20T10:48:52.383Z,9.33
2019-01-20T10:53:44.334Z,9.70
2019-01-20T10:56:15.056Z,10.27
2019-01-20T10:58:25.755Z,8.07
2019-01-20T11:00:39.567Z,8.13
2019-01-20T11:03:19.134Z,9.13
2019-01-20T11:05:55.930Z,8.07
2019-01-20T11:08:21.004Z,9.43
2019-01-20T11:10:56.295Z,7.03
2019-01-20T11:13:03.528Z,8.40
2019-01-20T11:15:09.822Z,8.30
2019-01-20T11:17:14.203Z,8.20
2019-01-20T11:19:25.523Z,8.63
2019-01-20T11:21:35.415Z,8.20
2019-01-20T11:23:39.287Z,8.00
2019-01-20T11:25:44.025Z,7.60
2019-01-20T11:27:47.889Z,7.70
2019-01-20T11:29:52.006Z,8.03
2019-01-20T11:31:55.865Z,7.30
2019-01-20T11:33:59.903Z,6.73
2019-01-20T11:36:03.930Z,7.33
2019-01-20T11:38:07.956Z,7.33
2019-01-20T11:40:16.097Z,8.03
2019-01-20T11:42:23.197Z,7.40
2019-01-20T11:44:27.030Z,7.73
2019-01-20T11:47:48.205Z,7.03
2019-01-20T11:59:34.455Z,6.80
2019-01-20T12:05:43.947Z,6.33
2019-01-20T12:08:30.715Z,5.70
2019-01-20T12:11:15.009Z,5.23
2019-01-20T12:13:36.732Z,5.77
2019-01-20T12:16:15.810Z,6.73
2019-01-20T12:18:23.006Z,6.10
2019-01-20T12:27:14.900Z,6.37
2019-01-20T12:29:22.747Z,6.13
2019-01-20T12:31:29.629Z,6.33
2019-01-20T12:33:49.704Z,7.23
2019-01-20T12:36:12.351Z,6.20
2019-01-20T12:38:24.031Z,7.57
2019-01-20T12:40:30.445Z,6.20
2019-01-20T12:42:35.407Z,6.00
2019-01-20T12:44:42.793Z,6.17
2019-01-20T12:46:46.775Z,6.83
2019-01-20T12:48:52.636Z,6.23
2019-01-20T12:50:56.555Z,6.70
2019-01-20T12:53:00.462Z,5.30
2019-01-20T12:55:06.744Z,6.30
2019-01-20T12:57:10.871Z,6.30
2019-01-20T12:59:14.953Z,5.27
2019-01-20T13:01:20.970Z,6.50
2019-01-20T13:03:24.982Z,5.53
2019-01-20T13:05:32.046Z,6.10
2019-01-20T13:07:39.371Z,6.03
2019-01-20T13:09:43.694Z,6.50
2019-01-20T13:11:47.495Z,5.10
2019-01-20T13:13:51.410Z,5.40
2019-01-20T13:15:55.593Z,5.13
2019-01-20T13:17:59.419Z,5.20
2019-01-20T13:20:03.901Z,5.53
2019-01-20T13:22:07.890Z,5.27
2019-01-20T13:24:11.772Z,5.30
2019-01-20T13:26:15.568Z,5.67
2019-01-20T13:28:19.474Z,5.70
2019-01-20T13:30:25.138Z,4.83
2019-01-20T13:32:29.182Z,5.80
2019-01-20T13:34:33.147Z,5.40
2019-01-20T13:36:37.287Z,5.37
2019-01-20T13:38:41.343Z,5.97
2019-01-20T13:40:51.546Z,4.87
2019-01-20T13:42:55.607Z,4.90
2019-01-20T13:44:59.669Z,5.50
2019-01-20T13:47:03.580Z,5.50
2019-01-20T13:49:07.462Z,5.57
2019-01-20T13:51:11.518Z,5.27
2019-01-20T13:53:15.395Z,5.70
2019-01-20T13:55:19.264Z,5.57
2019-01-20T13:57:23.235Z,5.10
2019-01-20T13:59:27.217Z,5.43
2019-01-20T14:01:31.123Z,5.20
2019-01-20T14:03:36.855Z,6.40
2019-01-20T14:05:40.765Z,5.80
2019-01-20T14:07:44.713Z,5.23
2019-01-20T14:09:48.603Z,6.00
2019-01-20T14:11:52.588Z,5.30
2019-01-20T14:13:56.439Z,4.60
2019-01-20T14:16:00.326Z,4.70
2019-01-20T14:18:04.370Z,6.73
2019-01-20T14:20:15.036Z,5.70
2019-01-20T14:22:18.922Z,5.37
2019-01-20T14:24:25.095Z,5.50
2019-01-20T14:26:31.608Z,4.50
2019-01-20T14:28:45.508Z,5.40
2019-01-20T14:31:37.912Z,4.20
2019-01-20T14:37:00.922Z,5.00
2019-01-20T14:39:15.931Z,4.63
2019-01-20T14:41:32.360Z,4.13
2019-01-20T14:44:42.826Z,4.67
2019-01-20T14:46:50.032Z,5.07
2019-01-20T14:52:17.224Z,5.40
2019-01-20T14:54:14.164Z,6.10
2019-01-20T15:00:16.044Z,5.37
2019-01-20T15:02:36.403Z,5.90
2019-01-20T15:04:43.189Z,13.77
2019-01-20T15:06:47.448Z,6.93
2019-01-20T15:08:53.601Z,6.77
2019-01-20T15:10:57.567Z,7.00
2019-01-20T15:13:01.620Z,5.80
2019-01-20T15:15:09.054Z,5.47
2019-01-20T15:17:13.704Z,6.03
2019-01-20T15:19:17.632Z,6.03
2019-01-20T15:21:21.595Z,8.23
2019-01-20T15:23:27.462Z,8.57
2019-01-20T15:25:31.623Z,8.40
2019-01-20T15:27:35.830Z,7.80
2019-01-20T15:29:39.698Z,7.70
2019-01-20T15:31:43.643Z,6.70
2019-01-20T15:33:47.485Z,5.60
2019-01-20T15:35:51.428Z,6.30
2019-01-20T15:37:55.415Z,6.13
2019-01-20T15:39:59.303Z,5.50
2019-01-20T15:42:03.350Z,7.43
2019-01-20T15:44:07.255Z,6.67
2019-01-20T15:46:14.043Z,6.53
2019-01-20T15:48:21.579Z,6.80
2019-01-20T15:50:55.767Z,7.23
2019-01-20T15:53:09.750Z,6.60
2019-01-20T15:55:38.489Z,7.40
2019-01-20T15:57:42.773Z,6.93
2019-01-20T15:59:57.960Z,7.20
2019-01-20T16:02:06.959Z,7.00
2019-01-20T16:04:11.062Z,9.40
2019-01-20T16:06:42.651Z,8.63
2019-01-20T16:09:07.621Z,10.10
2019-01-20T16:11:12.024Z,9.40
2019-01-20T16:13:16.104Z,19.17
2019-01-20T16:15:24.775Z,15.10
2019-01-20T16:17:50.242Z,10.60
2019-01-20T16:19:54.195Z,10.87
2019-01-20T16:21:58.071Z,9.83
2019-01-20T16:24:01.974Z,11.60
2019-01-20T16:26:06.108Z,11.10
2019-01-20T16:28:11.278Z,11.70
2019-01-20T16:30:20.824Z,12.93
2019-01-20T16:32:24.718Z,14.80
2019-01-20T16:34:28.759Z,14.70
2019-01-20T16:36:32.775Z,14.67
2019-01-20T16:38:36.730Z,14.13
2019-01-20T16:40:40.696Z,13.47
2019-01-20T16:42:44.799Z,15.33
2019-01-20T16:44:48.732Z,13.30
2019-01-20T16:46:52.740Z,13.77
2019-01-20T16:48:56.571Z,12.27
2019-01-20T16:51:02.237Z,14.67
2019-01-20T16:53:07.111Z,13.37
2019-01-20T16:55:11.772Z,16.37
2019-01-20T16:57:15.674Z,14.60
2019-01-20T16:59:19.656Z,15.70
2019-01-20T17:01:23.546Z,15.17
2019-01-20T17:03:27.440Z,16.57
2019-01-20T17:05:31.404Z,19.17
2019-01-20T17:07:35.547Z,23.17
2019-01-20T17:09:39.479Z,65.10
2019-01-20T17:11:44.056Z,33.20
2019-01-20T17:13:48.015Z,21.40
2019-01-20T17:15:51.856Z,21.50
2019-01-20T17:17:56.076Z,21.60
2019-01-20T17:19:59.994Z,21.03
2019-01-20T17:22:13.253Z,31.50
2019-01-20T17:24:17.158Z,19.27
2019-01-20T17:26:21.075Z,22.67
2019-01-20T17:28:25.062Z,22.10
2019-01-20T17:30:30.992Z,24.77
2019-01-20T17:32:47.007Z,25.07
2019-01-20T17:34:51.014Z,26.03
2019-01-20T17:37:04.136Z,26.10
2019-01-20T17:39:12.160Z,26.10
2019-01-20T17:41:19.136Z,28.90
2019-01-20T17:43:23.064Z,32.87
2019-01-20T17:45:29.652Z,42.93
2019-01-20T17:47:33.570Z,43.80
2019-01-20T17:49:37.454Z,38.50
2019-01-20T17:51:43.610Z,39.00
2019-01-20T17:53:47.427Z,43.13
2019-01-20T17:55:58.487Z,50.73
2019-01-20T17:58:10.213Z,39.17
2019-01-20T18:00:31.820Z,34.47
2019-01-20T18:03:35.081Z,31.70
2019-01-20T18:38:32.345Z,35.13
2019-01-20T18:47:48.277Z,39.00
2019-01-20T18:50:37.225Z,38.33
2019-01-20T18:56:29.416Z,42.40
2019-01-20T19:13:27.588Z,43.87
2019-01-20T19:20:19.872Z,39.70
2019-01-20T19:36:14.903Z,42.53
2019-01-20T19:38:35.880Z,42.80
2019-01-20T19:41:28.576Z,41.70
2019-01-20T19:44:07.017Z,43.10
2019-01-20T19:46:38.715Z,41.87
2019-01-20T19:49:23.383Z,42.60
2019-01-20T19:51:57.641Z,42.23
2019-01-20T19:57:38.397Z,44.60
2019-01-20T19:59:52.225Z,44.10
2019-01-20T20:02:26.611Z,45.80
2019-01-20T20:04:51.379Z,47.00
2019-01-20T20:07:16.707Z,50.87
2019-01-20T20:10:34.465Z,51.53
2019-01-20T20:13:45.819Z,53.93
2019-01-20T20:17:41.926Z,54.97
2019-01-20T20:18:15.216Z,59.00
2019-01-20T20:20:51.525Z,60.70
2019-01-20T20:23:10.013Z,59.27
2019-01-20T20:26:05.797Z,57.10
2019-01-20T20:28:16.205Z,53.70
2019-01-20T20:30:37.773Z,56.60
2019-01-20T20:32:53.341Z,60.27
2019-01-20T20:35:44.612Z,59.33
2019-01-20T20:37:47.197Z,55.57
2019-01-20T20:42:50.717Z,55.87
2019-01-20T20:45:41.391Z,58.87
2019-01-20T20:54:13.462Z,56.47
2019-01-20T20:56:17.280Z,56.43
2019-01-20T20:58:21.594Z,60.47
2019-01-20T21:01:22.335Z,57.17
2019-01-20T21:03:45.982Z,58.33
2019-01-20T21:05:49.909Z,60.57
2019-01-20T21:09:06.290Z,59.80
2019-01-20T21:11:45.561Z,61.63
2019-01-20T21:15:18.659Z,64.97
2019-01-20T21:17:51.279Z,63.13
2019-01-20T21:19:54.250Z,61.20
2019-01-20T21:22:26.473Z,65.20
2019-01-20T21:24:33.302Z,66.00
2019-01-20T21:26:45.204Z,65.03
2019-01-20T21:30:02.987Z,65.47
2019-01-20T21:31:31.787Z,67.30
2019-01-20T21:34:27.911Z,65.60
2019-01-20T21:36:38.521Z,63.07
2019-01-20T21:39:07.116Z,65.40
2019-01-20T23:05:02.715Z,83.00
2019-01-20T23:07:45.464Z,83.17
2019-01-20T23:15:09.586Z,82.90
2019-01-20T23:42:58.686Z,80.97
2019-01-20T23:45:27.719Z,84.23
2019-01-20T23:47:56.736Z,78.90
2019-01-20T23:50:36.719Z,76.17
2019-01-20T23:53:00.745Z,76.67
2019-01-20T23:58:11.550Z,79.90
